Time;durP1;ratioP1;P1;durP2;ratioP2;P2;SDS_P1;SDS_P2;PMS_P1;PMS_P2;Temp;Humidity;BMP_temperature;BMP_pressure;BME280_temperature;BME280_humidity;BME280_pressure;Samples;Min_cycle;Max_cycle;Signal;HPM_P1;HPM_P2
2022/07/25 00:01:36;;;;;;;9.30;5.92;;;;;;;18.04;100.00;99388.73;1801876;77;21042;-68
2022/07/25 00:04:03;;;;;;;7.92;6.00;;;;;;;18.01;100.00;99385.27;1782424;79;20983;-67
2022/07/25 00:06:31;;;;;;;7.60;6.40;;;;;;;17.98;100.00;99389.25;1758228;79;21020;-68
2022/07/25 00:08:58;;;;;;;7.25;6.55;;;;;;;17.93;100.00;99388.84;1788495;79;21020;-68
2022/07/25 00:11:26;;;;;;;10.65;6.72;;;;;;;17.89;100.00;99386.50;1783349;79;21026;-67
2022/07/25 00:13:54;;;;;;;7.55;6.75;;;;;;;17.87;100.00;99381.91;1766033;79;21798;-68
2022/07/25 00:16:20;;;;;;;7.42;6.70;;;;;;;17.83;100.00;99390.58;1768050;80;21596;-67
2022/07/25 00:18:46;;;;;;;9.68;6.28;;;;;;;17.80;100.00;99388.48;1777155;80;21045;-66
2022/07/25 00:21:13;;;;;;;9.75;5.85;;;;;;;17.71;100.00;99387.11;1765281;80;21077;-66
2022/07/25 00:23:41;;;;;;;7.28;6.08;;;;;;;17.68;100.00;99393.28;1787887;79;21092;-66
2022/07/25 00:26:09;;;;;;;7.25;5.60;;;;;;;17.67;100.00;99388.12;1762256;80;21098;-68
2022/07/25 00:28:35;;;;;;;6.87;5.37;;;;;;;17.66;100.00;99387.87;1788459;79;21045;-68
2022/07/25 00:31:03;;;;;;;9.15;5.37;;;;;;;17.62;100.00;99383.58;1780435;78;21027;-68
2022/07/25 00:33:29;;;;;;;7.47;5.17;;;;;;;17.58;100.00;99385.36;1764817;80;21049;-68
2022/07/25 00:35:57;;;;;;;8.50;5.25;;;;;;;17.56;100.00;99390.40;1787497;79;20983;-67
2022/07/25 00:38:23;;;;;;;10.30;5.40;;;;;;;17.54;100.00;99387.12;1765189;80;21085;-68
2022/07/25 00:40:50;;;;;;;7.03;5.47;;;;;;;17.50;100.00;99389.49;1787312;80;21003;-68
2022/07/25 00:43:16;;;;;;;8.08;5.30;;;;;;;17.46;100.00;99387.14;1768714;80;21050;-67
2022/07/25 00:45:42;;;;;;;6.47;5.40;;;;;;;17.38;100.00;99386.02;1768882;80;20990;-68
2022/07/25 00:48:09;;;;;;;;;;;;;;;17.32;100.00;99383.20;1805074;79;21057;-68
2022/07/25 00:50:35;;;;;;;7.83;5.37;;;;;;;17.31;100.00;99388.44;1792217;78;20107;-68
2022/07/25 00:53:01;;;;;;;6.80;5.45;;;;;;;17.25;100.00;99381.50;1769621;79;21454;-66
2022/07/25 00:55:28;;;;;;;;;;;;;;;17.22;100.00;99381.56;1762198;80;20946;-67
2022/07/25 00:57:54;;;;;;;7.37;5.70;;;;;;;17.22;100.00;99383.49;1773313;79;20128;-66
2022/07/25 01:00:20;;;;;;;7.70;5.42;;;;;;;17.16;100.00;99386.17;1760044;80;20946;-67
2022/07/25 01:02:47;;;;;;;;;;;;;;;17.11;100.00;99384.38;1796545;79;21009;-66
2022/07/25 01:05:13;;;;;;;7.03;5.53;;;;;;;17.08;100.00;99385.03;1810522;79;20133;-66
2022/07/25 01:07:40;;;;;;;6.95;5.42;;;;;;;17.01;100.00;99381.95;1792439;78;21610;-66
2022/07/25 01:10:07;;;;;;;7.42;5.35;;;;;;;16.97;100.00;99380.98;1797420;78;21005;-68
2022/07/25 01:12:52;;;;;;;8.20;6.58;;;;;;;16.98;100.00;99388.66;1790324;79;21028;-67
2022/07/25 01:15:21;;;;;;;7.47;5.83;;;;;;;16.95;100.00;99391.50;1793895;79;21042;-67
2022/07/25 01:17:47;;;;;;;8.30;5.95;;;;;;;16.93;100.00;99389.66;1759058;80;21072;-67
2022/07/25 01:20:21;;;;;;;12.35;5.60;;;;;;;16.87;100.00;99388.98;1776739;80;20959;-66
2022/07/25 01:22:48;;;;;;;6.85;5.62;;;;;;;16.83;100.00;99381.13;1800258;79;21040;-68
2022/07/25 01:25:15;;;;;;;9.73;5.70;;;;;;;16.81;100.00;99387.52;1792010;79;20955;-69
2022/07/25 01:27:42;;;;;;;7.03;5.45;;;;;;;16.77;100.00;99389.30;1806802;77;21017;-66
2022/07/25 01:30:11;;;;;;;9.08;5.60;;;;;;;16.72;100.00;99385.90;1766583;80;20967;-67
2022/07/25 01:32:39;;;;;;;7.05;4.95;;;;;;;16.69;100.00;99390.08;1766543;80;21032;-66
2022/07/25 01:35:06;;;;;;;7.42;4.90;;;;;;;16.69;100.00;99393.39;1760429;80;21061;-67
2022/07/25 01:37:33;;;;;;;12.33;4.78;;;;;;;16.71;100.00;99393.89;1764727;80;21670;-66
2022/07/25 01:40:00;;;;;;;5.15;4.30;;;;;;;16.68;100.00;99393.16;1762832;80;21085;-66
2022/07/25 01:42:27;;;;;;;7.30;4.90;;;;;;;16.66;100.00;99398.16;1772792;80;21090;-66
2022/07/25 01:44:54;;;;;;;6.33;5.28;;;;;;;16.64;100.00;99390.80;1804627;79;20994;-66
2022/07/25 01:47:20;;;;;;;8.25;4.97;;;;;;;16.60;100.00;99392.01;1766495;80;21062;-65
2022/07/25 01:49:47;;;;;;;10.65;5.22;;;;;;;16.56;100.00;99386.91;1790793;79;20978;-68
2022/07/25 01:52:13;;;;;;;;;;;;;;;16.54;100.00;99383.64;1797202;79;21087;-68
2022/07/25 01:54:40;;;;;;;6.72;5.22;;;;;;;16.50;100.00;99387.34;1792579;79;20107;-66
2022/07/25 01:57:06;;;;;;;10.23;5.20;;;;;;;16.37;100.00;99387.69;1803425;77;21069;-67
2022/07/25 01:59:38;;;;;;;5.83;4.62;;;;;;;16.31;100.00;99392.53;1760288;80;21476;-66
2022/07/25 02:02:06;;;;;;;7.30;4.80;;;;;;;16.31;100.00;99389.78;1785173;79;20974;-68
2022/07/25 02:04:33;;;;;;;8.73;5.08;;;;;;;16.30;100.00;99388.16;1788921;79;21023;-68
2022/07/25 02:07:00;;;;;;;7.90;4.90;;;;;;;16.26;100.00;99395.41;1776236;79;21018;-67
2022/07/25 02:09:27;;;;;;;7.17;4.55;;;;;;;16.24;100.00;99392.18;1773456;79;20981;-68
2022/07/25 02:11:55;;;;;;;7.37;5.08;;;;;;;16.22;100.00;99394.45;1775751;78;21046;-67
2022/07/25 02:14:22;;;;;;;8.00;4.50;;;;;;;16.21;100.00;99397.50;1778622;79;21015;-66
2022/07/25 02:16:49;;;;;;;6.33;4.58;;;;;;;16.21;100.00;99387.88;1792863;79;21030;-66
2022/07/25 02:19:17;;;;;;;7.08;5.17;;;;;;;16.21;100.00;99403.80;1740983;80;21430;-67
2022/07/25 02:21:44;;;;;;;9.95;5.20;;;;;;;16.17;100.00;99394.58;1796366;79;21015;-67
2022/07/25 02:24:10;;;;;;;7.33;5.30;;;;;;;16.11;100.00;99404.09;1804410;79;21021;-65
2022/07/25 02:26:37;;;;;;;;;;;;;;;16.06;100.00;99401.47;1793870;79;21587;-66
2022/07/25 02:29:03;;;;;;;10.08;4.83;;;;;;;16.05;100.00;99399.84;1791840;79;20454;-66
2022/07/25 02:31:29;;;;;;;;;;;;;;;16.00;100.00;99397.80;1768522;80;21011;-66
2022/07/25 02:33:55;;;;;;;6.15;3.83;;;;;;;15.98;100.00;99392.61;1772383;80;20403;-66
2022/07/25 02:36:22;;;;;;;;;;;;;;;15.93;100.00;99390.02;1798983;79;21480;-67
2022/07/25 02:38:48;;;;;;;6.15;4.25;;;;;;;15.91;100.00;99389.51;1734775;81;20110;-67
2022/07/25 02:41:15;;;;;;;5.85;4.72;;;;;;;15.87;100.00;99397.56;1746451;81;21041;-68
2022/07/25 02:43:41;;;;;;;;;;;;;;;15.85;100.00;99392.96;1787609;79;22020;-66
2022/07/25 02:46:08;;;;;;;8.28;4.60;;;;;;;15.84;100.00;99391.89;1766975;78;20387;-68
2022/07/25 02:48:34;;;;;;;;;;;;;;;15.83;100.00;99392.48;1796563;79;21013;-68
2022/07/25 02:51:00;;;;;;;5.50;4.00;;;;;;;15.84;100.00;99402.31;1798200;79;20123;-67
2022/07/25 02:53:27;;;;;;;5.80;3.70;;;;;;;15.82;100.00;99396.90;1762011;80;21034;-67
2022/07/25 02:55:53;;;;;;;;;;;;;;;15.84;100.00;99400.94;1791212;79;21006;-66
2022/07/25 02:58:20;;;;;;;5.35;3.70;;;;;;;15.87;100.00;99401.68;1788166;79;20108;-66
2022/07/25 03:00:46;;;;;;;5.53;3.40;;;;;;;15.85;100.00;99405.31;1787581;79;21555;-66
2022/07/25 03:03:13;;;;;;;5.47;3.42;;;;;;;15.85;100.00;99403.12;1788925;78;20982;-67
2022/07/25 03:05:40;;;;;;;6.03;3.42;;;;;;;15.85;100.00;99404.50;1761951;81;20962;-67
2022/07/25 03:08:07;;;;;;;6.65;3.47;;;;;;;15.87;100.00;99405.02;1748221;80;21051;-67
2022/07/25 03:10:35;;;;;;;;;;;;;;;15.92;100.00;99407.61;1761313;81;21005;-67
2022/07/25 03:13:01;;;;;;;8.70;3.30;;;;;;;15.95;100.00;99406.97;1739499;81;20130;-67
2022/07/25 03:15:28;;;;;;;10.82;3.22;;;;;;;15.91;100.00;99412.28;1745133;81;21021;-66
2022/07/25 03:17:55;;;;;;;5.25;3.10;;;;;;;15.92;100.00;99409.80;1747090;79;21037;-67
2022/07/25 03:20:21;;;;;;;;;;;;;;;15.94;100.00;99404.79;1750488;81;21041;-66
2022/07/25 03:22:48;;;;;;;13.80;3.37;;;;;;;15.97;100.00;99412.16;1753910;81;20138;-67
2022/07/25 03:25:14;;;;;;;;;;;;;;;15.94;100.00;99413.61;1755996;81;21552;-66
2022/07/25 03:27:41;;;;;;;7.55;3.20;;;;;;;15.96;100.00;99415.47;1795625;79;20421;-66
2022/07/25 03:30:08;;;;;;;7.28;2.70;;;;;;;16.00;100.00;99411.53;1783979;79;21002;-66
2022/07/25 03:32:35;;;;;;;4.60;2.83;;;;;;;16.08;100.00;99412.14;1793801;79;20968;-66
2022/07/25 03:35:01;;;;;;;7.30;2.98;;;;;;;16.15;100.00;99406.45;1789224;79;20995;-66
2022/07/25 03:37:29;;;;;;;4.83;2.60;;;;;;;16.21;100.00;99409.30;1764143;80;21018;-67
2022/07/25 03:39:55;;;;;;;5.55;2.50;;;;;;;16.27;100.00;99405.83;1745141;82;20986;-68
2022/07/25 03:42:23;;;;;;;4.08;2.65;;;;;;;16.33;100.00;99403.21;1744530;81;22226;-68
2022/07/25 03:44:49;;;;;;;8.93;2.80;;;;;;;16.40;100.00;99402.19;1734701;81;20973;-68
2022/07/25 03:47:17;;;;;;;3.72;2.17;;;;;;;16.48;100.00;99406.87;1741596;81;20973;-69
2022/07/25 03:49:43;;;;;;;4.65;2.80;;;;;;;16.57;100.00;99400.90;1782652;79;21022;-67
2022/07/25 03:52:10;;;;;;;;;;;;;;;16.62;100.00;99404.85;1795019;79;21552;-68
2022/07/25 03:54:36;;;;;;;4.95;2.60;;;;;;;16.71;100.00;99407.08;1785906;79;20550;-67
2022/07/25 03:57:04;;;;;;;7.30;2.60;;;;;;;16.66;100.00;99398.16;1796200;78;20974;-66
2022/07/25 03:59:30;;;;;;;3.92;2.67;;;;;;;16.64;100.00;99402.61;1779589;79;21030;-65
2022/07/25 04:01:58;;;;;;;6.80;2.77;;;;;;;16.67;100.00;99399.78;1797651;79;21050;-67
2022/07/25 04:04:24;;;;;;;6.28;2.47;;;;;;;16.70;100.00;99401.33;1794283;78;21046;-67
2022/07/25 04:06:52;;;;;;;6.17;2.40;;;;;;;16.73;100.00;99402.61;1802446;78;21594;-67
2022/07/25 04:09:19;;;;;;;5.28;2.65;;;;;;;16.75;100.00;99405.31;1806702;78;21006;-68
2022/07/25 04:11:47;;;;;;;4.70;2.72;;;;;;;16.80;100.00;99402.95;1766441;80;21513;-66
2022/07/25 04:14:14;;;;;;;5.10;2.50;;;;;;;16.92;100.00;99407.27;1775712;79;21033;-64
2022/07/25 04:16:42;;;;;;;4.87;2.37;;;;;;;17.12;100.00;99410.77;1789351;78;21005;-64
2022/07/25 04:19:10;;;;;;;4.58;2.50;;;;;;;17.18;100.00;99404.55;1807042;78;21009;-65
2022/07/25 04:21:37;;;;;;;6.03;2.55;;;;;;;17.20;100.00;99402.28;1770074;80;21012;-67
2022/07/25 04:24:04;;;;;;;5.58;2.35;;;;;;;17.25;100.00;99402.12;1772590;80;21041;-67
2022/07/25 04:26:30;;;;;;;6.03;2.70;;;;;;;17.30;100.00;99409.64;1762906;80;20974;-66
2022/07/25 04:29:01;;;;;;;5.17;2.72;;;;;;;17.33;100.00;99406.23;1772962;80;21009;-65
2022/07/25 04:31:26;;;;;;;5.83;2.70;;;;;;;17.34;100.00;99401.55;1793969;78;21019;-65
2022/07/25 04:33:52;;;;;;;;;;;;;;;17.43;100.00;99404.31;1803718;78;21295;-65
2022/07/25 04:36:18;;;;;;;6.28;2.52;;;;;;;17.48;100.00;99404.94;1796243;78;20122;-65
2022/07/25 04:38:45;;;;;;;4.15;2.35;;;;;;;17.50;100.00;99405.41;1799625;78;20996;-65
2022/07/25 04:41:11;;;;;;;;;;;;;;;17.49;100.00;99408.50;1794768;78;21015;-66
2022/07/25 04:43:38;;;;;;;5.25;2.47;;;;;;;17.45;100.00;99407.53;1790694;79;20103;-67
2022/07/25 04:46:05;;;;;;;5.08;2.52;;;;;;;17.34;100.00;99411.98;1791433;78;21002;-66
2022/07/25 04:48:31;;;;;;;4.97;2.70;;;;;;;17.35;100.00;99412.24;1768313;80;21336;-66
2022/07/25 04:50:58;;;;;;;6.00;2.95;;;;;;;17.40;100.00;99414.00;1794950;80;21037;-67
2022/07/25 04:53:24;;;;;;;3.20;2.42;;;;;;;17.40;100.00;99417.56;1786394;79;21449;-66
2022/07/25 04:55:50;;;;;;;;;;;;;;;17.39;100.00;99415.94;1797846;78;20955;-67
2022/07/25 04:58:17;;;;;;;4.28;2.40;;;;;;;17.37;100.00;99414.09;1773602;80;20425;-66
2022/07/25 05:00:43;;;;;;;7.60;2.55;;;;;;;17.36;100.00;99417.96;1762598;80;21024;-68
2022/07/25 05:03:11;;;;;;;3.58;2.30;;;;;;;17.40;100.00;99420.31;1779398;80;21018;-66
2022/07/25 05:05:39;;;;;;;6.37;2.37;;;;;;;17.45;100.00;99423.48;1789029;80;20994;-68
2022/07/25 05:08:06;;;;;;;;;;;;;;;17.56;100.00;99418.45;1776343;79;20994;-68
2022/07/25 05:10:32;;;;;;;4.75;2.42;;;;;;;17.71;100.00;99420.74;1795704;79;20084;-68
2022/07/25 05:12:58;;;;;;;4.60;2.77;;;;;;;17.77;100.00;99411.17;1788999;79;21485;-68
2022/07/25 05:15:25;;;;;;;6.78;2.80;;;;;;;17.95;100.00;99423.77;1788418;79;20965;-67
2022/07/25 05:17:53;;;;;;;3.62;2.55;;;;;;;18.13;100.00;99404.68;1808654;77;21578;-66
2022/07/25 05:20:20;;;;;;;5.22;2.65;;;;;;;18.26;100.00;99408.34;1796633;79;20974;-67
2022/07/25 05:22:48;;;;;;;5.10;2.60;;;;;;;18.53;100.00;99405.17;1758247;80;20991;-65
2022/07/25 05:25:14;;;;;;;4.08;2.42;;;;;;;18.91;100.00;99405.70;1779736;79;20960;-65
2022/07/25 05:27:41;;;;;;;4.00;2.50;;;;;;;19.29;100.00;99400.30;1787860;79;21595;-67
2022/07/25 05:30:09;;;;;;;6.92;2.67;;;;;;;19.66;100.00;99407.39;1792651;79;20970;-67
2022/07/25 05:32:36;;;;;;;5.22;2.50;;;;;;;20.04;100.00;99396.91;1790945;79;21565;-67
2022/07/25 05:35:04;;;;;;;3.77;2.58;;;;;;;20.37;100.00;99394.69;1797912;79;20963;-66
2022/07/25 05:37:33;;;;;;;5.45;2.70;;;;;;;20.72;100.00;99381.44;1789928;77;20975;-68
2022/07/25 05:39:59;;;;;;;4.62;2.10;;;;;;;20.88;100.00;99381.52;1791088;79;21042;-68
2022/07/25 05:42:25;;;;;;;3.77;2.17;;;;;;;20.86;100.00;99372.77;1793107;79;21026;-67
2022/07/25 05:44:52;;;;;;;5.30;2.35;;;;;;;20.76;100.00;99369.88;1786975;80;21382;-67
2022/07/25 05:47:20;;;;;;;6.60;2.37;;;;;;;20.62;100.00;99371.39;1788411;79;21031;-67
2022/07/25 05:49:46;;;;;;;6.00;2.55;;;;;;;20.69;100.00;99372.42;1786525;79;21037;-65
2022/07/25 05:52:13;;;;;;;6.25;2.17;;;;;;;20.75;100.00;99368.29;1787453;79;21027;-66
2022/07/25 05:54:40;;;;;;;7.83;2.20;;;;;;;20.92;100.00;99363.06;1792715;80;21042;-67
2022/07/25 05:57:06;;;;;;;5.80;2.25;;;;;;;21.07;100.00;99367.07;1769379;81;20981;-67
2022/07/25 05:59:33;;;;;;;5.25;2.47;;;;;;;21.09;100.00;99356.45;1770843;81;21001;-67
2022/07/25 06:02:00;;;;;;;4.22;2.37;;;;;;;21.07;100.00;99361.53;1769535;80;21460;-67
2022/07/25 06:04:27;;;;;;;5.55;2.65;;;;;;;21.19;100.00;99355.98;1769383;81;21049;-65
2022/07/25 06:06:53;;;;;;;6.15;2.67;;;;;;;21.29;100.00;99347.98;1735876;81;21018;-66
2022/07/25 06:09:20;;;;;;;5.25;2.70;;;;;;;21.33;100.00;99346.70;1766323;80;20974;-65
2022/07/25 06:11:48;;;;;;;5.00;2.50;;;;;;;21.33;100.00;99342.55;1769544;80;21058;-65
2022/07/25 06:14:14;;;;;;;4.85;2.25;;;;;;;21.33;100.00;99342.55;1762334;81;21026;-66
2022/07/25 06:16:41;;;;;;;4.05;2.00;;;;;;;21.46;100.00;99345.52;1761195;80;21077;-66
2022/07/25 06:19:08;;;;;;;6.30;2.22;;;;;;;21.64;100.00;99332.96;1762778;80;21049;-67
2022/07/25 06:21:35;;;;;;;5.83;2.52;;;;;;;21.77;100.00;99334.49;1768194;80;21078;-66
2022/07/25 06:24:03;;;;;;;4.87;2.20;;;;;;;21.94;100.00;99338.10;1762609;81;21065;-66
2022/07/25 06:26:29;;;;;;;5.33;2.15;;;;;;;22.07;100.00;99332.72;1762698;81;21046;-66
2022/07/25 06:28:56;;;;;;;7.17;2.62;;;;;;;22.25;100.00;99327.82;1773405;80;21409;-67
2022/07/25 06:31:23;;;;;;;4.67;2.00;;;;;;;22.39;100.00;99331.52;1765085;80;21090;-67
2022/07/25 06:33:49;;;;;;;4.45;2.80;;;;;;;22.53;100.00;99328.30;1763306;81;21099;-66
2022/07/25 06:36:16;;;;;;;5.03;3.25;;;;;;;22.81;100.00;99331.75;1762103;80;21046;-68
2022/07/25 06:38:42;;;;;;;6.10;2.50;;;;;;;22.97;100.00;99324.16;1763696;80;21669;-69
2022/07/25 06:41:14;;;;;;;4.45;2.42;;;;;;;23.05;100.00;99321.77;1768796;80;21039;-68
2022/07/25 06:43:42;;;;;;;4.40;2.22;;;;;;;23.13;100.00;99319.95;1763622;81;21524;-69
2022/07/25 06:46:10;;;;;;;3.40;1.90;;;;;;;23.26;100.00;99321.41;1762501;80;21066;-69
2022/07/25 06:48:37;;;;;;;2.80;1.98;;;;;;;23.30;100.00;99313.38;1761359;80;21516;-69
2022/07/25 06:51:04;;;;;;;3.60;2.40;;;;;;;23.40;100.00;99316.72;1763190;81;20998;-69
2022/07/25 06:53:30;;;;;;;4.35;2.08;;;;;;;23.44;100.00;99315.66;1762780;81;21069;-69
2022/07/25 06:55:58;;;;;;;4.53;2.27;;;;;;;23.46;100.00;99324.41;1749979;81;21671;-69
2022/07/25 06:58:24;;;;;;;4.30;1.85;;;;;;;23.51;100.00;99314.40;1765520;80;20955;-67
2022/07/25 07:00:51;;;;;;;5.55;2.17;;;;;;;23.57;100.00;99321.84;1763304;81;21587;-69
2022/07/25 07:03:17;;;;;;;6.05;1.80;;;;;;;23.61;100.00;99321.32;1762473;81;21046;-69
2022/07/25 07:05:44;;;;;;;5.15;1.98;;;;;;;23.89;100.00;99316.28;1765258;80;21020;-68
2022/07/25 07:08:10;;;;;;;5.12;2.10;;;;;;;24.17;100.00;99320.97;1763771;80;21037;-68
2022/07/25 07:10:37;;;;;;;5.92;2.00;;;;;;;24.26;100.00;99322.13;1781227;80;21560;-69
2022/07/25 07:13:11;;;;;;;3.95;1.90;;;;;;;24.35;100.00;99327.41;1793173;78;21058;-69
2022/07/25 07:15:38;;;;;;;3.27;1.98;;;;;;;24.27;100.00;99323.13;1790375;80;21622;-68
2022/07/25 07:18:05;;;;;;;4.92;2.20;;;;;;;24.18;100.00;99320.39;1766217;80;21607;-68
2022/07/25 07:20:33;;;;;;;5.50;2.33;;;;;;;23.84;100.00;99325.53;1768107;80;21053;-67
2022/07/25 07:22:59;;;;;;;2.75;1.87;;;;;;;23.55;100.00;99322.80;1779738;80;21038;-69
2022/07/25 07:25:26;;;;;;;4.17;1.98;;;;;;;23.35;100.00;99324.75;1772250;80;21088;-69
2022/07/25 07:27:53;;;;;;;6.40;2.00;;;;;;;23.22;100.00;99321.91;1769090;80;21510;-68
2022/07/25 07:30:19;;;;;;;4.65;2.02;;;;;;;23.12;100.00;99337.19;1763553;81;21049;-68
2022/07/25 07:32:47;;;;;;;5.60;2.15;;;;;;;22.95;100.00;99319.58;1766213;80;21052;-70
2022/07/25 07:35:15;;;;;;;5.03;1.82;;;;;;;22.81;100.00;99326.20;1780040;80;21022;-68
2022/07/25 07:37:43;;;;;;;4.20;2.00;;;;;;;22.84;100.00;99331.60;1779764;78;21156;-68
2022/07/25 07:40:11;;;;;;;3.85;2.00;;;;;;;22.89;100.00;99336.27;1793310;80;21524;-67
2022/07/25 07:42:43;;;;;;;3.62;1.85;;;;;;;23.05;100.00;99325.13;1786965;78;21586;-68
2022/07/25 07:45:16;;;;;;;3.83;2.22;;;;;;;23.24;100.00;99328.70;1769452;80;21068;-67
2022/07/25 07:47:46;;;;;;;4.08;1.95;;;;;;;23.25;100.00;99328.92;1744051;81;21914;-69
2022/07/25 07:50:12;;;;;;;5.20;2.12;;;;;;;23.14;100.00;99328.48;1740844;80;21431;-65
2022/07/25 07:52:39;;;;;;;4.08;2.12;;;;;;;22.95;100.00;99332.64;1782498;79;21094;-67
2022/07/25 07:57:52;;;;;;;3.08;1.80;;;;;;;23.10;100.00;99333.95;1760692;80;20991;-65
2022/07/25 08:00:18;;;;;;;3.98;1.80;;;;;;;23.24;100.00;99331.47;1780742;80;21011;-67
2022/07/25 08:02:49;;;;;;;4.50;1.82;;;;;;;23.38;100.00;99324.05;1781800;79;21034;-66
2022/07/25 08:05:24;;;;;;;3.95;1.80;;;;;;;23.57;100.00;99324.62;1784377;80;21046;-66
2022/07/25 08:07:51;;;;;;;4.33;1.70;;;;;;;23.77;100.00;99324.20;1761704;81;21085;-66
2022/07/25 08:10:23;;;;;;;3.25;1.65;;;;;;;23.79;100.00;99326.05;1792487;80;21010;-67
2022/07/25 08:12:52;;;;;;;3.90;1.67;;;;;;;23.94;100.00;99315.98;1788349;79;21548;-68
2022/07/25 08:15:20;;;;;;;5.03;1.67;;;;;;;24.00;100.00;99314.50;1759857;80;21089;-66
2022/07/25 08:17:51;;;;;;;3.52;1.50;;;;;;;23.98;100.00;99324.39;1760228;80;21045;-67
2022/07/25 08:20:19;;;;;;;3.10;1.47;;;;;;;23.95;100.00;99323.13;1760416;80;21060;-67
2022/07/25 08:22:46;;;;;;;2.75;1.37;;;;;;;23.97;100.00;99320.00;1761669;81;21022;-66
2022/07/25 08:25:19;;;;;;;4.20;1.67;;;;;;;23.89;100.00;99316.87;1792247;80;21603;-66
2022/07/25 08:27:46;;;;;;;5.72;2.15;;;;;;;23.87;100.00;99322.01;1789383;80;21471;-67
2022/07/25 08:30:13;;;;;;;4.15;1.70;;;;;;;23.68;100.00;99320.06;1761681;81;21117;-66
2022/07/25 08:32:54;;;;;;;3.10;1.70;;;;;;;23.45;100.00;99328.96;1811527;79;21071;-67
2022/07/25 08:35:23;;;;;;;4.08;1.80;;;;;;;23.35;100.00;99332.30;1792676;80;21501;-66
2022/07/25 08:37:49;;;;;;;4.30;1.90;;;;;;;23.34;100.00;99340.41;1821713;77;21537;-67
2022/07/25 08:40:17;;;;;;;8.40;2.40;;;;;;;23.36;100.00;99334.70;1814311;79;21014;-68
2022/07/25 08:42:44;;;;;;;4.28;1.72;;;;;;;23.22;100.00;99328.27;1821887;77;21611;-66
2022/07/25 08:45:18;;;;;;;3.08;1.98;;;;;;;23.29;100.00;99325.64;1821820;79;21041;-67
2022/07/25 08:47:51;;;;;;;5.42;2.80;;;;;;;23.85;100.00;99314.61;1821763;77;21010;-66
2022/07/25 08:50:27;;;;;;;2.00;1.57;;;;;;;23.85;100.00;99314.61;1816235;79;21022;-67
2022/07/25 08:52:54;;;;;;;4.67;1.95;;;;;;;23.99;100.00;99318.44;1821723;77;21034;-67
2022/07/25 08:55:22;;;;;;;4.70;1.72;;;;;;;23.91;100.00;99314.53;1821965;79;21011;-67
2022/07/25 08:57:51;;;;;;;4.37;1.55;;;;;;;23.90;100.00;99314.31;1821577;77;21034;-66
2022/07/25 09:00:24;;;;;;;3.37;1.90;;;;;;;24.02;100.00;99318.31;1815931;78;21033;-67
2022/07/25 09:02:59;;;;;;;3.05;1.60;;;;;;;24.13;100.00;99320.69;1821954;77;21022;-67
2022/07/25 09:05:28;;;;;;;3.92;2.17;;;;;;;24.01;100.00;99334.19;1813709;78;21458;-67
2022/07/25 09:07:55;;;;;;;4.75;1.70;;;;;;;23.91;100.00;99326.47;1773563;81;21032;-66
2022/07/25 09:10:26;;;;;;;3.15;1.90;;;;;;;23.92;100.00;99321.68;1784147;80;20949;-66
2022/07/25 09:13:00;;;;;;;3.45;1.70;;;;;;;24.11;100.00;99321.63;1744801;81;21099;-67
2022/07/25 09:15:35;;;;;;;3.00;1.70;;;;;;;24.22;100.00;99317.89;1743178;82;21984;-68
2022/07/25 09:18:08;;;;;;;2.83;1.47;;;;;;;24.39;100.00;99324.09;1745498;81;21071;-67
2022/07/25 09:20:48;;;;;;;3.15;1.70;;;;;;;24.42;100.00;99317.20;1789538;80;20998;-67
2022/07/25 09:23:37;;;;;;;5.90;1.60;;;;;;;24.27;100.00;99320.34;1773622;81;21502;-67
2022/07/25 09:26:10;;;;;;;4.22;1.90;;;;;;;23.95;100.00;99314.80;1742613;81;21131;-66
2022/07/25 09:28:44;;;;;;;2.37;1.80;;;;;;;23.76;100.00;99315.67;1763668;81;21025;-66
2022/07/25 09:31:10;;;;;;;3.52;1.75;;;;;;;23.77;100.00;99312.31;1788927;79;21003;-66
2022/07/25 09:33:55;;;;;;;2.98;1.60;;;;;;;23.83;100.00;99303.88;1773606;81;20949;-66
2022/07/25 09:36:22;;;;;;;2.92;1.40;;;;;;;23.77;100.00;99304.75;1784733;79;21074;-67
2022/07/25 09:38:55;;;;;;;4.80;1.80;;;;;;;23.69;100.00;99303.62;1739169;82;21479;-67
2022/07/25 09:41:38;;;;;;;3.22;1.60;;;;;;;23.59;100.00;99313.38;1789477;79;21118;-66
2022/07/25 09:44:21;;;;;;;4.50;1.60;;;;;;;23.55;100.00;99311.69;1789207;80;21065;-66
2022/07/25 09:46:47;;;;;;;3.20;2.00;;;;;;;23.56;100.00;99304.97;1784570;79;21152;-67
2022/07/25 09:49:14;;;;;;;2.92;1.62;;;;;;;23.62;100.00;99307.66;1788762;80;21469;-67
2022/07/25 09:51:41;;;;;;;3.72;1.72;;;;;;;23.67;100.00;99308.73;1789373;79;21140;-67
2022/07/25 09:54:08;;;;;;;3.25;1.70;;;;;;;23.66;100.00;99298.80;1789536;80;21018;-66
2022/07/25 09:56:35;;;;;;;2.30;1.37;;;;;;;23.68;100.00;99299.23;1783609;79;21129;-67
2022/07/25 09:59:02;;;;;;;2.98;1.57;;;;;;;23.71;100.00;99298.48;1789383;80;21006;-65
2022/07/25 10:01:49;;;;;;;3.87;2.45;;;;;;;23.67;100.00;99299.00;1789401;79;21098;-66
2022/07/25 10:04:31;;;;;;;3.17;1.80;;;;;;;23.59;100.00;99306.43;1789734;80;21469;-65
2022/07/25 10:07:08;;;;;;;6.33;1.80;;;;;;;23.53;100.00;99309.84;1782627;79;21019;-67
2022/07/25 10:09:48;;;;;;;3.10;1.80;;;;;;;23.35;100.00;99311.47;1789747;80;21422;-66
2022/07/25 10:12:22;;;;;;;3.58;1.60;;;;;;;23.35;100.00;99311.47;1783961;79;21034;-66
2022/07/25 10:15:07;;;;;;;2.87;1.55;;;;;;;23.45;100.00;99308.13;1789620;80;20979;-67
2022/07/25 10:20:39;;;;;;;2.92;1.80;;;;;;;23.65;100.00;99294.41;1800593;79;23417;-66
2022/07/25 10:23:26;;;;;;;2.62;1.57;;;;;;;23.64;100.00;99291.41;1740257;82;21486;-66
2022/07/25 10:26:12;;;;;;;2.50;1.55;;;;;;;23.60;100.00;99296.09;1722785;82;21026;-65
2022/07/25 10:28:45;;;;;;;3.55;2.00;;;;;;;23.61;100.00;99281.84;1716170;83;21027;-66
2022/07/25 10:31:33;;;;;;;3.92;1.55;;;;;;;23.61;100.00;99281.84;1726129;82;21051;-64
2022/07/25 10:34:07;;;;;;;4.53;1.87;;;;;;;23.68;100.00;99287.53;1752425;82;21064;-66
2022/07/25 10:36:49;;;;;;;5.28;2.00;;;;;;;23.87;100.00;99290.04;1751851;81;21039;-65
2022/07/25 10:39:18;;;;;;;2.80;1.90;;;;;;;24.05;100.00;99285.59;1752206;82;21542;-65
2022/07/25 10:41:53;;;;;;;2.55;1.82;;;;;;;24.15;100.00;99284.41;1749647;82;21094;-65
2022/07/25 10:44:20;;;;;;;4.22;1.52;;;;;;;24.31;100.00;99286.21;1752584;81;21047;-64
2022/07/25 10:46:47;;;;;;;4.17;1.70;;;;;;;24.41;100.00;99275.86;1752469;82;21047;-66
2022/07/25 10:49:24;;;;;;;2.75;1.50;;;;;;;24.40;100.00;99283.98;1752253;81;21058;-65
2022/07/25 10:51:59;;;;;;;3.55;1.65;;;;;;;24.41;100.00;99284.98;1751025;82;21523;-67
2022/07/25 10:54:34;;;;;;;2.15;1.45;;;;;;;24.41;100.00;99289.77;1752629;82;21027;-67
2022/07/25 10:57:00;;;;;;;3.12;1.70;;;;;;;24.31;100.00;99286.21;1724705;82;21054;-66
2022/07/25 10:59:37;;;;;;;4.78;1.72;;;;;;;24.16;100.00;99285.21;1752268;82;21570;-68
2022/07/25 11:02:07;;;;;;;3.12;1.70;;;;;;;24.15;100.00;99290.55;1748053;82;21043;-68
2022/07/25 11:04:35;;;;;;;4.95;2.45;;;;;;;24.18;100.00;99287.02;1752468;82;21019;-67
2022/07/25 11:07:12;;;;;;;5.67;2.05;;;;;;;24.06;100.00;99275.47;1752308;82;21047;-68
2022/07/25 11:09:41;;;;;;;4.03;1.85;;;;;;;24.11;100.00;99293.83;1743645;82;21517;-67
2022/07/25 11:12:08;;;;;;;8.85;2.08;;;;;;;24.13;100.00;99287.32;1722729;83;21019;-67
2022/07/25 11:14:40;;;;;;;4.70;2.00;;;;;;;24.17;100.00;99285.41;1722474;83;21509;-67
2022/07/25 11:17:19;;;;;;;4.37;1.77;;;;;;;24.33;100.00;99285.27;1722409;83;21664;-68
2022/07/25 11:19:57;;;;;;;4.28;2.02;;;;;;;24.33;100.00;99285.27;1702011;81;21024;-67
2022/07/25 11:22:28;;;;;;;3.62;1.98;;;;;;;24.29;100.00;99283.83;1745815;81;21098;-75
2022/07/25 11:24:55;;;;;;;4.60;2.17;;;;;;;24.17;100.00;99282.05;1741942;81;21117;-73
2022/07/25 11:27:31;;;;;;;4.67;2.15;;;;;;;24.17;100.00;99284.02;1742976;81;21093;-74
2022/07/25 11:30:16;;;;;;;3.75;2.37;;;;;;;24.18;100.00;99283.66;1758392;81;21089;-72
2022/07/25 11:32:46;;;;;;;3.37;2.40;;;;;;;24.27;100.00;99282.80;1757940;81;21085;-70
2022/07/25 11:35:13;;;;;;;4.22;2.25;;;;;;;24.37;100.00;99274.42;1752181;81;21034;-71
2022/07/25 11:37:42;;;;;;;3.65;1.92;;;;;;;24.48;100.00;99274.58;1760348;81;21066;-71
2022/07/25 11:40:10;;;;;;;3.20;2.15;;;;;;;24.62;100.00;99262.26;1755040;81;21050;-70
2022/07/25 11:42:46;;;;;;;4.47;2.52;;;;;;;24.72;100.00;99265.19;1717641;82;21085;-70